sensor_id;sensor_type;location;lat;lon;timestamp;temperature;humidity
4090;DHT22;2059;48.538;12.146;2024-01-15T00:02:47;-1.90;99.90
4090;DHT22;2059;48.538;12.146;2024-01-15T00:07:50;-2.30;99.90
4090;DHT22;2059;48.538;12.146;2024-01-15T00:12:52;-1.90;99.90
4090;DHT22;2059;48.538;12.146;2024-01-15T00:17:54;-2.30;99.90
4090;DHT22;2059;48.538;12.146;2024-01-15T00:22:57;-2.20;99.90
4090;DHT22;2059;48.538;12.146;2024-01-15T00:27:59;-1.90;99.90
4090;DHT22;2059;48.538;12.146;2024-01-15T00:33:00;-1.90;99.90
4090;DHT22;2059;48.538;12.146;2024-01-15T00:38:04;-1.80;99.90
4090;DHT22;2059;48.538;12.146;2024-01-15T00:43:05;-1.90;99.90
4090;DHT22;2059;48.538;12.146;2024-01-15T00:48:08;-1.90;99.90
4090;DHT22;2059;48.538;12.146;2024-01-15T00:53:11;-2.00;99.90
4090;DHT22;2059;48.538;12.146;2024-01-15T00:58:12;-1.90;99.90
4090;DHT22;2059;48.538;12.146;2024-01-15T01:03:14;-1.70;99.90
4090;DHT22;2059;48.538;12.146;2024-01-15T01:08:17;-1.70;99.90
4090;DHT22;2059;48.538;12.146;2024-01-15T01:13:19;-1.80;99.90
4090;DHT22;2059;48.538;12.146;2024-01-15T01:18:21;-1.70;99.90
4090;DHT22;2059;48.538;12.146;2024-01-15T01:23:24;-1.90;99.90
4090;DHT22;2059;48.538;12.146;2024-01-15T01:28:26;-1.80;99.90
4090;DHT22;2059;48.538;12.146;2024-01-15T01:33:27;-1.60;99.90
4090;DHT22;2059;48.538;12.146;2024-01-15T01:38:30;-1.50;99.90
4090;DHT22;2059;48.538;12.146;2024-01-15T01:43:33;-1.40;99.90
4090;DHT22;2059;48.538;12.146;2024-01-15T01:48:35;-1.30;99.90
4090;DHT22;2059;48.538;12.146;2024-01-15T01:53:38;-1.10;99.90
4090;DHT22;2059;48.538;12.146;2024-01-15T01:58:40;-1.00;99.90
4090;DHT22;2059;48.538;12.146;2024-01-15T02:03:43;-1.20;99.90
4090;DHT22;2059;48.538;12.146;2024-01-15T02:08:46;-1.20;99.90
4090;DHT22;2059;48.538;12.146;2024-01-15T02:13:48;-1.40;99.90
4090;DHT22;2059;48.538;12.146;2024-01-15T02:18:50;-1.20;99.90
4090;DHT22;2059;48.538;12.146;2024-01-15T02:23:53;-1.00;99.90
4090;DHT22;2059;48.538;12.146;2024-01-15T02:28:55;-1.00;99.90
4090;DHT22;2059;48.538;12.146;2024-01-15T02:33:57;-0.90;99.90
4090;DHT22;2059;48.538;12.146;2024-01-15T02:39:00;-1.00;99.90
4090;DHT22;2059;48.538;12.146;2024-01-15T02:44:02;-1.00;99.90
4090;DHT22;2059;48.538;12.146;2024-01-15T02:49:04;-0.80;99.90
4090;DHT22;2059;48.538;12.146;2024-01-15T02:54:07;-0.50;99.90
4090;DHT22;2059;48.538;12.146;2024-01-15T02:59:09;-0.40;99.70
4090;DHT22;2059;48.538;12.146;2024-01-15T03:04:11;-0.90;99.90
4090;DHT22;2059;48.538;12.146;2024-01-15T03:09:14;-0.80;99.90
4090;DHT22;2059;48.538;12.146;2024-01-15T03:14:15;-0.90;99.90
4090;DHT22;2059;48.538;12.146;2024-01-15T03:19:17;-0.90;99.90
4090;DHT22;2059;48.538;12.146;2024-01-15T03:24:20;-1.00;99.90
4090;DHT22;2059;48.538;12.146;2024-01-15T03:29:22;-1.10;99.90
4090;DHT22;2059;48.538;12.146;2024-01-15T03:34:24;-1.00;99.90
4090;DHT22;2059;48.538;12.146;2024-01-15T03:39:27;-1.10;99.90
4090;DHT22;2059;48.538;12.146;2024-01-15T03:44:29;-1.00;99.90
4090;DHT22;2059;48.538;12.146;2024-01-15T03:49:30;-1.20;99.80
4090;DHT22;2059;48.538;12.146;2024-01-15T03:54:33;-1.50;99.90
4090;DHT22;2059;48.538;12.146;2024-01-15T03:59:35;-1.50;99.90
4090;DHT22;2059;48.538;12.146;2024-01-15T04:04:40;-1.30;99.90
4090;DHT22;2059;48.538;12.146;2024-01-15T04:09:44;-1.10;99.60
4090;DHT22;2059;48.538;12.146;2024-01-15T04:14:45;-1.30;99.90
4090;DHT22;2059;48.538;12.146;2024-01-15T04:19:47;-1.30;99.90
4090;DHT22;2059;48.538;12.146;2024-01-15T04:24:50;-1.20;99.50
4090;DHT22;2059;48.538;12.146;2024-01-15T04:29:52;-1.20;99.70
4090;DHT22;2059;48.538;12.146;2024-01-15T04:34:55;-1.20;99.50
4090;DHT22;2059;48.538;12.146;2024-01-15T04:39:58;-1.10;99.50
4090;DHT22;2059;48.538;12.146;2024-01-15T04:45:00;-1.10;99.70
4090;DHT22;2059;48.538;12.146;2024-01-15T04:50:02;-1.10;99.80
4090;DHT22;2059;48.538;12.146;2024-01-15T04:55:05;-0.90;99.50
4090;DHT22;2059;48.538;12.146;2024-01-15T05:00:08;-0.50;99.10
4090;DHT22;2059;48.538;12.146;2024-01-15T05:05:10;-0.60;99.20
4090;DHT22;2059;48.538;12.146;2024-01-15T05:10:13;-0.80;99.40
4090;DHT22;2059;48.538;12.146;2024-01-15T05:15:15;-0.80;99.30
4090;DHT22;2059;48.538;12.146;2024-01-15T05:20:17;-0.70;99.30
4090;DHT22;2059;48.538;12.146;2024-01-15T05:25:20;-0.80;99.30
4090;DHT22;2059;48.538;12.146;2024-01-15T05:30:22;-0.60;99.20
4090;DHT22;2059;48.538;12.146;2024-01-15T05:35:23;-0.70;99.20
4090;DHT22;2059;48.538;12.146;2024-01-15T05:40:27;-0.60;99.10
4090;DHT22;2059;48.538;12.146;2024-01-15T05:45:30;-0.50;99.00
4090;DHT22;2059;48.538;12.146;2024-01-15T05:50:32;-0.40;98.90
4090;DHT22;2059;48.538;12.146;2024-01-15T05:55:35;-0.50;99.20
4090;DHT22;2059;48.538;12.146;2024-01-15T06:00:37;-0.30;98.80
4090;DHT22;2059;48.538;12.146;2024-01-15T06:05:39;-0.20;98.90
4090;DHT22;2059;48.538;12.146;2024-01-15T06:10:42;0.00;98.60
4090;DHT22;2059;48.538;12.146;2024-01-15T06:15:44;0.00;98.60
4090;DHT22;2059;48.538;12.146;2024-01-15T06:20:46;0.00;98.50
4090;DHT22;2059;48.538;12.146;2024-01-15T06:25:49;0.30;98.20
4090;DHT22;2059;48.538;12.146;2024-01-15T06:30:51;0.40;98.20
4090;DHT22;2059;48.538;12.146;2024-01-15T06:35:52;0.10;98.30
4090;DHT22;2059;48.538;12.146;2024-01-15T06:40:55;0.20;98.50
4090;DHT22;2059;48.538;12.146;2024-01-15T06:45:57;0.10;98.30
4090;DHT22;2059;48.538;12.146;2024-01-15T06:50:59;0.10;98.50
4090;DHT22;2059;48.538;12.146;2024-01-15T06:56:02;0.50;98.00
4090;DHT22;2059;48.538;12.146;2024-01-15T07:01:04;0.40;97.80
4090;DHT22;2059;48.538;12.146;2024-01-15T07:06:06;0.40;97.70
4090;DHT22;2059;48.538;12.146;2024-01-15T07:11:09;0.40;97.80
4090;DHT22;2059;48.538;12.146;2024-01-15T07:16:11;0.30;97.50
4090;DHT22;2059;48.538;12.146;2024-01-15T07:21:12;0.50;97.30
4090;DHT22;2059;48.538;12.146;2024-01-15T07:26:16;0.30;97.60
4090;DHT22;2059;48.538;12.146;2024-01-15T07:31:20;0.30;97.60
4090;DHT22;2059;48.538;12.146;2024-01-15T07:36:22;0.40;97.40
4090;DHT22;2059;48.538;12.146;2024-01-15T07:41:25;0.60;97.00
4090;DHT22;2059;48.538;12.146;2024-01-15T07:46:27;0.50;96.90
4090;DHT22;2059;48.538;12.146;2024-01-15T07:51:29;0.50;97.00
4090;DHT22;2059;48.538;12.146;2024-01-15T07:56:32;0.40;96.80
4090;DHT22;2059;48.538;12.146;2024-01-15T08:01:33;0.60;97.10
4090;DHT22;2059;48.538;12.146;2024-01-15T08:06:35;0.90;96.40
4090;DHT22;2059;48.538;12.146;2024-01-15T08:11:40;0.40;96.80
4090;DHT22;2059;48.538;12.146;2024-01-15T08:16:43;0.50;97.00
4090;DHT22;2059;48.538;12.146;2024-01-15T08:21:45;0.60;96.70
4090;DHT22;2059;48.538;12.146;2024-01-15T08:26:48;0.70;96.90
4090;DHT22;2059;48.538;12.146;2024-01-15T08:31:49;0.80;97.10
4090;DHT22;2059;48.538;12.146;2024-01-15T08:36:51;1.00;97.00
4090;DHT22;2059;48.538;12.146;2024-01-15T08:41:54;1.10;96.80
4090;DHT22;2059;48.538;12.146;2024-01-15T08:46:56;1.40;96.70
4090;DHT22;2059;48.538;12.146;2024-01-15T08:51:58;1.70;96.60
4090;DHT22;2059;48.538;12.146;2024-01-15T08:57:01;2.00;95.50
4090;DHT22;2059;48.538;12.146;2024-01-15T09:02:03;2.20;95.60
4090;DHT22;2059;48.538;12.146;2024-01-15T09:07:05;2.20;95.10
4090;DHT22;2059;48.538;12.146;2024-01-15T09:12:08;2.00;95.00
4090;DHT22;2059;48.538;12.146;2024-01-15T09:17:10;1.90;94.90
4090;DHT22;2059;48.538;12.146;2024-01-15T09:22:12;2.20;94.70
4090;DHT22;2059;48.538;12.146;2024-01-15T09:27:16;2.40;94.00
4090;DHT22;2059;48.538;12.146;2024-01-15T09:32:17;2.30;94.00
4090;DHT22;2059;48.538;12.146;2024-01-15T09:37:19;2.70;93.70
4090;DHT22;2059;48.538;12.146;2024-01-15T09:42:24;2.40;93.10
4090;DHT22;2059;48.538;12.146;2024-01-15T09:47:26;2.30;93.10
4090;DHT22;2059;48.538;12.146;2024-01-15T09:52:28;2.30;92.90
4090;DHT22;2059;48.538;12.146;2024-01-15T09:57:32;2.80;92.90
4090;DHT22;2059;48.538;12.146;2024-01-15T10:02:35;2.90;92.60
4090;DHT22;2059;48.538;12.146;2024-01-15T10:07:37;2.90;92.10
4090;DHT22;2059;48.538;12.146;2024-01-15T10:12:42;2.40;92.40
4090;DHT22;2059;48.538;12.146;2024-01-15T10:17:43;2.40;92.40
4090;DHT22;2059;48.538;12.146;2024-01-15T10:22:45;2.60;92.30
4090;DHT22;2059;48.538;12.146;2024-01-15T10:27:59;2.50;92.60
4090;DHT22;2059;48.538;12.146;2024-01-15T10:33:02;2.40;92.20
4090;DHT22;2059;48.538;12.146;2024-01-15T10:38:05;2.30;92.40
4090;DHT22;2059;48.538;12.146;2024-01-15T10:43:09;2.80;92.40
4090;DHT22;2059;48.538;12.146;2024-01-15T10:48:11;3.40;91.20
4090;DHT22;2059;48.538;12.146;2024-01-15T10:53:14;3.20;90.90
4090;DHT22;2059;48.538;12.146;2024-01-15T10:58:18;3.20;91.10
4090;DHT22;2059;48.538;12.146;2024-01-15T11:03:20;3.20;90.80
4090;DHT22;2059;48.538;12.146;2024-01-15T11:08:24;3.10;91.00
4090;DHT22;2059;48.538;12.146;2024-01-15T11:13:41;3.00;90.80
4090;DHT22;2059;48.538;12.146;2024-01-15T11:19:02;2.80;90.70
4090;DHT22;2059;48.538;12.146;2024-01-15T11:24:06;2.80;91.20
4090;DHT22;2059;48.538;12.146;2024-01-15T11:29:31;2.90;91.00
4090;DHT22;2059;48.538;12.146;2024-01-15T11:34:56;3.00;90.40
4090;DHT22;2059;48.538;12.146;2024-01-15T11:40:02;3.00;90.50
4090;DHT22;2059;48.538;12.146;2024-01-15T11:45:06;3.10;90.40
4090;DHT22;2059;48.538;12.146;2024-01-15T11:50:08;3.30;89.70
4090;DHT22;2059;48.538;12.146;2024-01-15T11:55:14;3.30;90.00
4090;DHT22;2059;48.538;12.146;2024-01-15T12:00:20;3.60;89.90
4090;DHT22;2059;48.538;12.146;2024-01-15T12:05:22;3.50;89.80
4090;DHT22;2059;48.538;12.146;2024-01-15T12:10:24;3.40;89.90
4090;DHT22;2059;48.538;12.146;2024-01-15T12:15:29;3.30;90.50
4090;DHT22;2059;48.538;12.146;2024-01-15T12:20:32;3.60;90.80
4090;DHT22;2059;48.538;12.146;2024-01-15T12:25:34;4.20;89.90
4090;DHT22;2059;48.538;12.146;2024-01-15T12:30:38;4.70;87.90
4090;DHT22;2059;48.538;12.146;2024-01-15T12:35:40;5.10;88.30
4090;DHT22;2059;48.538;12.146;2024-01-15T12:40:44;5.20;86.90
4090;DHT22;2059;48.538;12.146;2024-01-15T12:45:49;5.40;86.50
4090;DHT22;2059;48.538;12.146;2024-01-15T12:50:52;5.60;86.40
4090;DHT22;2059;48.538;12.146;2024-01-15T12:55:54;5.10;85.10
4090;DHT22;2059;48.538;12.146;2024-01-15T13:00:57;4.60;85.60
4090;DHT22;2059;48.538;12.146;2024-01-15T13:05:58;4.30;86.30
4090;DHT22;2059;48.538;12.146;2024-01-15T13:11:00;4.10;87.60
4090;DHT22;2059;48.538;12.146;2024-01-15T13:16:04;3.80;88.10
4090;DHT22;2059;48.538;12.146;2024-01-15T13:21:06;3.90;88.20
4090;DHT22;2059;48.538;12.146;2024-01-15T13:26:07;3.10;86.90
4090;DHT22;2059;48.538;12.146;2024-01-15T13:31:11;3.00;87.70
4090;DHT22;2059;48.538;12.146;2024-01-15T13:36:12;2.90;88.80
4090;DHT22;2059;48.538;12.146;2024-01-15T13:41:14;2.80;89.60
4090;DHT22;2059;48.538;12.146;2024-01-15T13:46:17;2.90;90.10
4090;DHT22;2059;48.538;12.146;2024-01-15T13:51:22;3.00;90.00
4090;DHT22;2059;48.538;12.146;2024-01-15T13:56:24;3.10;90.10
4090;DHT22;2059;48.538;12.146;2024-01-15T14:01:32;3.10;90.00
4090;DHT22;2059;48.538;12.146;2024-01-15T14:06:34;3.10;90.10
4090;DHT22;2059;48.538;12.146;2024-01-15T14:11:36;3.20;90.30
4090;DHT22;2059;48.538;12.146;2024-01-15T14:16:39;3.30;90.30
4090;DHT22;2059;48.538;12.146;2024-01-15T14:21:41;3.30;90.20
4090;DHT22;2059;48.538;12.146;2024-01-15T14:26:43;3.10;91.10
4090;DHT22;2059;48.538;12.146;2024-01-15T14:31:46;3.20;92.90
4090;DHT22;2059;48.538;12.146;2024-01-15T14:36:48;2.80;94.60
4090;DHT22;2059;48.538;12.146;2024-01-15T14:41:50;2.50;96.90
4090;DHT22;2059;48.538;12.146;2024-01-15T14:46:53;1.70;99.90
4090;DHT22;2059;48.538;12.146;2024-01-15T14:51:55;1.80;99.90
4090;DHT22;2059;48.538;12.146;2024-01-15T14:56:56;1.70;99.90
4090;DHT22;2059;48.538;12.146;2024-01-15T15:02:00;1.60;99.90
4090;DHT22;2059;48.538;12.146;2024-01-15T15:07:01;1.90;99.90
4090;DHT22;2059;48.538;12.146;2024-01-15T15:12:04;2.10;99.90
4090;DHT22;2059;48.538;12.146;2024-01-15T15:17:07;1.90;99.90
4090;DHT22;2059;48.538;12.146;2024-01-15T15:22:09;2.00;99.90
4090;DHT22;2059;48.538;12.146;2024-01-15T15:27:11;2.30;99.90
4090;DHT22;2059;48.538;12.146;2024-01-15T15:32:14;2.50;99.90
4090;DHT22;2059;48.538;12.146;2024-01-15T15:37:16;2.40;99.90
4090;DHT22;2059;48.538;12.146;2024-01-15T15:42:18;2.20;99.90
4090;DHT22;2059;48.538;12.146;2024-01-15T15:47:21;2.20;99.90
4090;DHT22;2059;48.538;12.146;2024-01-15T15:52:23;2.20;99.90
4090;DHT22;2059;48.538;12.146;2024-01-15T15:57:24;2.00;99.90
4090;DHT22;2059;48.538;12.146;2024-01-15T16:02:28;1.80;99.90
4090;DHT22;2059;48.538;12.146;2024-01-15T16:07:30;1.80;99.90
4090;DHT22;2059;48.538;12.146;2024-01-15T16:12:32;1.80;99.90
4090;DHT22;2059;48.538;12.146;2024-01-15T16:17:35;1.70;99.90
4090;DHT22;2059;48.538;12.146;2024-01-15T16:22:37;2.10;99.90
4090;DHT22;2059;48.538;12.146;2024-01-15T16:27:39;1.90;99.90
4090;DHT22;2059;48.538;12.146;2024-01-15T16:32:44;1.70;99.90
4090;DHT22;2059;48.538;12.146;2024-01-15T16:37:45;1.50;99.90
4090;DHT22;2059;48.538;12.146;2024-01-15T16:42:47;1.30;99.90
4090;DHT22;2059;48.538;12.146;2024-01-15T16:47:50;1.50;99.90
4090;DHT22;2059;48.538;12.146;2024-01-15T16:52:52;1.60;99.90
4090;DHT22;2059;48.538;12.146;2024-01-15T16:57:54;1.30;99.90
4090;DHT22;2059;48.538;12.146;2024-01-15T17:02:57;1.40;99.90
4090;DHT22;2059;48.538;12.146;2024-01-15T17:07:59;1.50;99.90
4090;DHT22;2059;48.538;12.146;2024-01-15T17:13:00;1.40;99.90
4090;DHT22;2059;48.538;12.146;2024-01-15T17:18:05;1.70;99.80
4090;DHT22;2059;48.538;12.146;2024-01-15T17:23:07;2.00;99.20
4090;DHT22;2059;48.538;12.146;2024-01-15T17:28:09;1.90;99.30
4090;DHT22;2059;48.538;12.146;2024-01-15T17:33:12;1.80;99.20
4090;DHT22;2059;48.538;12.146;2024-01-15T17:38:15;1.60;99.50
4090;DHT22;2059;48.538;12.146;2024-01-15T17:43:16;2.00;99.00
4090;DHT22;2059;48.538;12.146;2024-01-15T17:48:20;1.80;99.00
4090;DHT22;2059;48.538;12.146;2024-01-15T17:53:23;2.00;98.60
4090;DHT22;2059;48.538;12.146;2024-01-15T17:58:25;1.80;98.90
4090;DHT22;2059;48.538;12.146;2024-01-15T18:03:28;1.80;98.60
4090;DHT22;2059;48.538;12.146;2024-01-15T18:08:30;1.60;99.20
4090;DHT22;2059;48.538;12.146;2024-01-15T18:13:32;1.30;98.90
4090;DHT22;2059;48.538;12.146;2024-01-15T18:18:35;1.00;99.40
4090;DHT22;2059;48.538;12.146;2024-01-15T18:23:37;1.30;98.90
4090;DHT22;2059;48.538;12.146;2024-01-15T18:28:39;1.40;98.50
4090;DHT22;2059;48.538;12.146;2024-01-15T18:33:42;1.10;99.00
4090;DHT22;2059;48.538;12.146;2024-01-15T18:38:44;1.10;99.20
4090;DHT22;2059;48.538;12.146;2024-01-15T18:43:45;1.00;99.40
4090;DHT22;2059;48.538;12.146;2024-01-15T18:48:49;1.30;99.10
4090;DHT22;2059;48.538;12.146;2024-01-15T18:53:51;0.90;99.70
4090;DHT22;2059;48.538;12.146;2024-01-15T18:58:53;1.20;99.50
4090;DHT22;2059;48.538;12.146;2024-01-15T19:03:56;1.20;99.60
4090;DHT22;2059;48.538;12.146;2024-01-15T19:08:58;1.10;99.70
4090;DHT22;2059;48.538;12.146;2024-01-15T19:14:00;1.20;99.30
4090;DHT22;2059;48.538;12.146;2024-01-15T19:19:03;0.90;99.40
4090;DHT22;2059;48.538;12.146;2024-01-15T19:24:05;1.00;99.10
4090;DHT22;2059;48.538;12.146;2024-01-15T19:29:07;0.80;99.10
4090;DHT22;2059;48.538;12.146;2024-01-15T19:34:10;0.70;99.20
4090;DHT22;2059;48.538;12.146;2024-01-15T19:39:12;0.70;99.40
4090;DHT22;2059;48.538;12.146;2024-01-15T19:44:14;0.70;99.00
4090;DHT22;2059;48.538;12.146;2024-01-15T19:49:17;0.60;98.90
4090;DHT22;2059;48.538;12.146;2024-01-15T19:54:18;0.50;98.80
4090;DHT22;2059;48.538;12.146;2024-01-15T19:59:20;0.50;98.40
4090;DHT22;2059;48.538;12.146;2024-01-15T20:04:23;0.30;98.60
4090;DHT22;2059;48.538;12.146;2024-01-15T20:09:25;0.50;98.50
4090;DHT22;2059;48.538;12.146;2024-01-15T20:14:28;0.50;98.20
4090;DHT22;2059;48.538;12.146;2024-01-15T20:19:32;0.30;98.70
4090;DHT22;2059;48.538;12.146;2024-01-15T20:24:34;0.20;98.70
4090;DHT22;2059;48.538;12.146;2024-01-15T20:29:36;0.10;98.90
4090;DHT22;2059;48.538;12.146;2024-01-15T20:34:39;0.00;99.20
4090;DHT22;2059;48.538;12.146;2024-01-15T20:39:41;-0.10;99.30
4090;DHT22;2059;48.538;12.146;2024-01-15T20:44:45;0.10;99.00
4090;DHT22;2059;48.538;12.146;2024-01-15T20:49:48;0.10;98.90
4090;DHT22;2059;48.538;12.146;2024-01-15T20:54:50;0.10;98.60
4090;DHT22;2059;48.538;12.146;2024-01-15T20:59:52;0.10;98.20
4090;DHT22;2059;48.538;12.146;2024-01-15T21:04:55;0.00;98.50
4090;DHT22;2059;48.538;12.146;2024-01-15T21:09:56;-0.10;98.50
4090;DHT22;2059;48.538;12.146;2024-01-15T21:14:58;0.10;98.20
4090;DHT22;2059;48.538;12.146;2024-01-15T21:20:01;-0.10;98.40
4090;DHT22;2059;48.538;12.146;2024-01-15T21:25:08;-0.10;98.20
4090;DHT22;2059;48.538;12.146;2024-01-15T21:30:12;-0.10;98.40
4090;DHT22;2059;48.538;12.146;2024-01-15T21:35:16;-0.20;98.50
4090;DHT22;2059;48.538;12.146;2024-01-15T21:40:18;0.10;98.20
4090;DHT22;2059;48.538;12.146;2024-01-15T21:45:20;0.10;97.90
4090;DHT22;2059;48.538;12.146;2024-01-15T21:50:23;0.30;97.80
4090;DHT22;2059;48.538;12.146;2024-01-15T21:55:25;0.30;97.60
4090;DHT22;2059;48.538;12.146;2024-01-15T22:00:27;0.50;97.60
4090;DHT22;2059;48.538;12.146;2024-01-15T22:05:30;0.40;97.80
4090;DHT22;2059;48.538;12.146;2024-01-15T22:10:32;0.50;97.20
4090;DHT22;2059;48.538;12.146;2024-01-15T22:15:33;0.30;97.30
4090;DHT22;2059;48.538;12.146;2024-01-15T22:20:36;0.20;97.50
4090;DHT22;2059;48.538;12.146;2024-01-15T22:25:40;0.70;96.90
4090;DHT22;2059;48.538;12.146;2024-01-15T22:30:42;0.60;96.60
4090;DHT22;2059;48.538;12.146;2024-01-15T22:35:45;0.50;97.00
4090;DHT22;2059;48.538;12.146;2024-01-15T22:40:47;0.50;96.60
4090;DHT22;2059;48.538;12.146;2024-01-15T22:45:49;0.20;97.30
4090;DHT22;2059;48.538;12.146;2024-01-15T22:50:52;0.50;96.80
4090;DHT22;2059;48.538;12.146;2024-01-15T22:55:54;0.40;96.90
4090;DHT22;2059;48.538;12.146;2024-01-15T23:00:56;0.30;96.90
4090;DHT22;2059;48.538;12.146;2024-01-15T23:06:00;0.50;97.10
4090;DHT22;2059;48.538;12.146;2024-01-15T23:11:02;0.50;96.60
4090;DHT22;2059;48.538;12.146;2024-01-15T23:16:04;0.30;97.00
4090;DHT22;2059;48.538;12.146;2024-01-15T23:21:07;0.50;96.60
4090;DHT22;2059;48.538;12.146;2024-01-15T23:26:09;0.40;96.70
4090;DHT22;2059;48.538;12.146;2024-01-15T23:31:11;0.50;96.60
4090;DHT22;2059;48.538;12.146;2024-01-15T23:36:14;0.60;96.30
4090;DHT22;2059;48.538;12.146;2024-01-15T23:41:20;0.40;96.30
4090;DHT22;2059;48.538;12.146;2024-01-15T23:46:22;0.70;96.50
4090;DHT22;2059;48.538;12.146;2024-01-15T23:51:25;0.90;96.20
4090;DHT22;2059;48.538;12.146;2024-01-15T23:56:27;1.00;96.00
